Nearby METAR Reports

 Weather conditions at key Metar weather stations is recorded hourly. Metar weather stations are the stations set up at regional or major airports and often considered the official stations of record for a local area.

KSEA - Seattle/Tacoma Airport
Updated: 10/23/2018 2:53pm
Haze, Overcast
Haze, Overcast
 Wind from SSE
Wind: SSE 7 mph , 11 km/h
Temperature: 54°F , 12°C
Dew Point: 46°F , 8°C
Humidity: 77%
Barometer: 29.93 inHg , 1013.5 hPa
Summary: Haze
Clouds: Overcast
Visibility: 5 miles , 8 km
Cloud details: Few Clouds 1500 ft
Overcast 19000 ft
2018/10/23 21:53 KSEA 232153Z 15006KT 5SM HZ FEW015 OVC190 12/08 A2993 RMK AO2 SLP142 T01170083
KTIW - Tacoma Narrows Bridge
Updated: 10/23/2018 2:53pm
Haze, Clear
Haze, Clear
 Wind from SE
Wind: SE 5 mph , 7 km/h
Temperature: 52°F , 11°C
Dew Point: 46°F , 8°C
Humidity: 82%
Barometer: 29.95 inHg , 1014.2 hPa
Summary: Haze
Clouds: Clear
Visibility: 6 miles , 10 km
2018/10/23 21:53 KTIW 232153Z 14004KT 6SM HZ CLR 11/08 A2995 RMK AO2 SLP142 T01110083
 
KBLI - Bellingham
Updated: 10/23/2018 2:53pm
Few Clouds
Few Clouds
 Wind from S
Wind: S 8 mph , 13 km/h
Temperature: 52°F , 11°C
Dew Point: 46°F , 8°C
Humidity: 82%
Barometer: 29.91 inHg , 1012.9 hPa
Clouds: Few Clouds
Visibility: 7 miles , 11 km
Cloud details: Few Clouds 800 ft
2018/10/23 21:53 KBLI 232153Z 17007KT 7SM FEW008 11/08 A2991 RMK AO2 SLP136 T01110083
KUIL - Quillayute-La Push
Updated: 10/23/2018 2:53pm
Light rain, Overcast
Light rain, Overcast
 Wind from SE
Wind: SE 14 mph , 22 km/h, Gust: 21 mph , 33 km/h
Temperature: 54°F , 12°C
Dew Point: 50°F , 10°C
Humidity: 88%
Barometer: 29.87 inHg , 1011.5 hPa
Summary: Light rain
Clouds: Overcast
Visibility: 7 miles , 11 km
Cloud details: Overcast 1500 ft
2018/10/23 21:53 KUIL 232153Z AUTO 14012G18KT 7SM -RA OVC015 12/10 A2987 RMK AO2 RAB22 SLP116 P0001 T01170100
 
KYKM - Yakima
Updated: 10/23/2018 2:53pm
Clear
Clear
 Wind from SE
Wind: SE 6 mph , 9 km/h
Temperature: 64°F , 18°C
Dew Point: 37°F , 3°C
Humidity: 37%
Barometer: 29.90 inHg , 1012.5 hPa
Clouds: Clear
Visibility: 10 miles , 16 km
2018/10/23 21:53 KYKM 232153Z 14005KT 10SM CLR 18/03 A2990 RMK AO2 SLP128 HZ FU ALQDS T01780033
KGEG - Spokane
Updated: 10/23/2018 2:53pm
Mostly cloudy
Mostly cloudy
 Wind from calm
Wind: Calm
Temperature: 61°F , 16°C
Dew Point: 37°F , 3°C
Humidity: 42%
Barometer: 29.91 inHg , 1012.9 hPa
Clouds: Mostly cloudy
Visibility: 9 miles , 14 km
Cloud details: Partly cloudy 9000 ft
Mostly cloudy 12000 ft
2018/10/23 21:53 KGEG 232153Z 00000KT 9SM SCT090 BKN120 16/03 A2991 RMK AO2 SLP129 T01610028
 
KPDX - Portland
Updated: 10/23/2018 2:53pm
Mostly cloudy
Mostly cloudy
 Wind from calm
Wind: Calm
Temperature: 57°F , 14°C
Dew Point: 46°F , 8°C
Humidity: 67%
Barometer: 29.99 inHg , 1015.6 hPa
Clouds: Mostly cloudy
Visibility: 10 miles , 16 km
Cloud details: Few Clouds 3000 ft
Mostly cloudy 11000 ft
Mostly cloudy 16000 ft
Mostly cloudy 25000 ft
2018/10/23 21:53 KPDX 232153Z 00000KT 10SM FEW030 BKN110 BKN160 BKN250 14/08 A2999 RMK AO2 SLP154 T01390083